sensor_id;sensor_type;location;lat;lon;timestamp;temperature;humidity
52471;DHT22;38382;53.160;7.026;2023-04-01T00:00:30;9.80;99.90
52471;DHT22;38382;53.160;7.026;2023-04-01T00:02:56;9.80;99.90
52471;DHT22;38382;53.160;7.026;2023-04-01T00:05:22;9.80;99.90
52471;DHT22;38382;53.160;7.026;2023-04-01T00:07:50;9.70;99.90
52471;DHT22;38382;53.160;7.026;2023-04-01T00:10:16;9.70;99.90
52471;DHT22;38382;53.160;7.026;2023-04-01T00:12:43;9.70;99.90
52471;DHT22;38382;53.160;7.026;2023-04-01T00:15:10;9.70;99.90
52471;DHT22;38382;53.160;7.026;2023-04-01T00:17:37;9.70;99.90
52471;DHT22;38382;53.160;7.026;2023-04-01T00:20:04;9.70;99.90
52471;DHT22;38382;53.160;7.026;2023-04-01T00:22:30;9.70;99.90
52471;DHT22;38382;53.160;7.026;2023-04-01T00:24:56;9.70;99.90
52471;DHT22;38382;53.160;7.026;2023-04-01T00:27:21;9.80;99.90
52471;DHT22;38382;53.160;7.026;2023-04-01T00:29:47;9.70;99.90
52471;DHT22;38382;53.160;7.026;2023-04-01T00:32:14;9.70;99.90
52471;DHT22;38382;53.160;7.026;2023-04-01T00:34:40;9.80;99.90
52471;DHT22;38382;53.160;7.026;2023-04-01T00:37:07;9.70;99.90
52471;DHT22;38382;53.160;7.026;2023-04-01T00:39:34;9.80;99.90
52471;DHT22;38382;53.160;7.026;2023-04-01T00:42:02;9.70;99.90
52471;DHT22;38382;53.160;7.026;2023-04-01T00:44:30;9.70;99.90
52471;DHT22;38382;53.160;7.026;2023-04-01T00:46:56;9.70;99.90
52471;DHT22;38382;53.160;7.026;2023-04-01T00:49:25;9.70;99.90
52471;DHT22;38382;53.160;7.026;2023-04-01T00:51:55;9.70;99.90
52471;DHT22;38382;53.160;7.026;2023-04-01T00:54:24;9.70;99.90
52471;DHT22;38382;53.160;7.026;2023-04-01T00:57:21;9.60;99.90
52471;DHT22;38382;53.160;7.026;2023-04-01T00:59:52;9.70;99.90
52471;DHT22;38382;53.160;7.026;2023-04-01T01:02:19;9.70;99.90
52471;DHT22;38382;53.160;7.026;2023-04-01T01:04:45;9.60;99.90
52471;DHT22;38382;53.160;7.026;2023-04-01T01:10:03;9.60;99.90
52471;DHT22;38382;53.160;7.026;2023-04-01T01:12:55;9.60;99.90
52471;DHT22;38382;53.160;7.026;2023-04-01T01:15:29;9.60;99.90
52471;DHT22;38382;53.160;7.026;2023-04-01T01:18:03;9.70;99.90
52471;DHT22;38382;53.160;7.026;2023-04-01T01:23:40;9.60;99.90
52471;DHT22;38382;53.160;7.026;2023-04-01T01:28:47;9.60;99.90
52471;DHT22;38382;53.160;7.026;2023-04-01T01:31:28;9.60;99.90
52471;DHT22;38382;53.160;7.026;2023-04-01T01:36:55;9.50;99.90
52471;DHT22;38382;53.160;7.026;2023-04-01T01:39:26;9.50;99.90
52471;DHT22;38382;53.160;7.026;2023-04-01T01:41:57;9.50;99.90
52471;DHT22;38382;53.160;7.026;2023-04-01T01:44:27;9.50;99.90
52471;DHT22;38382;53.160;7.026;2023-04-01T01:46:53;9.50;99.90
52471;DHT22;38382;53.160;7.026;2023-04-01T01:49:21;9.50;99.90
52471;DHT22;38382;53.160;7.026;2023-04-01T01:51:47;9.50;99.90
52471;DHT22;38382;53.160;7.026;2023-04-01T01:54:17;9.50;99.90
52471;DHT22;38382;53.160;7.026;2023-04-01T01:56:47;9.50;99.90
52471;DHT22;38382;53.160;7.026;2023-04-01T01:59:15;9.50;99.90
52471;DHT22;38382;53.160;7.026;2023-04-01T02:01:43;9.50;99.90
52471;DHT22;38382;53.160;7.026;2023-04-01T02:04:11;9.40;99.90
52471;DHT22;38382;53.160;7.026;2023-04-01T02:06:41;9.40;99.90
52471;DHT22;38382;53.160;7.026;2023-04-01T02:09:10;9.40;99.90
52471;DHT22;38382;53.160;7.026;2023-04-01T02:11:51;9.40;99.90
52471;DHT22;38382;53.160;7.026;2023-04-01T02:14:23;9.40;99.90
52471;DHT22;38382;53.160;7.026;2023-04-01T02:16:55;9.50;99.90
52471;DHT22;38382;53.160;7.026;2023-04-01T02:19:26;9.40;99.90
52471;DHT22;38382;53.160;7.026;2023-04-01T02:21:56;9.40;99.90
52471;DHT22;38382;53.160;7.026;2023-04-01T02:24:24;9.40;99.90
52471;DHT22;38382;53.160;7.026;2023-04-01T02:26:51;9.40;99.90
52471;DHT22;38382;53.160;7.026;2023-04-01T02:29:23;9.50;99.90
52471;DHT22;38382;53.160;7.026;2023-04-01T02:31:50;9.50;99.90
52471;DHT22;38382;53.160;7.026;2023-04-01T02:34:16;9.40;99.90
52471;DHT22;38382;53.160;7.026;2023-04-01T02:36:43;9.40;99.90
52471;DHT22;38382;53.160;7.026;2023-04-01T02:39:09;9.40;99.90
52471;DHT22;38382;53.160;7.026;2023-04-01T02:41:43;9.40;99.90
52471;DHT22;38382;53.160;7.026;2023-04-01T02:44:10;9.50;99.90
52471;DHT22;38382;53.160;7.026;2023-04-01T02:46:36;9.50;99.90
52471;DHT22;38382;53.160;7.026;2023-04-01T02:49:02;9.50;99.90
52471;DHT22;38382;53.160;7.026;2023-04-01T02:51:28;9.50;99.90
52471;DHT22;38382;53.160;7.026;2023-04-01T02:53:54;9.50;99.90
52471;DHT22;38382;53.160;7.026;2023-04-01T02:56:20;9.40;99.90
52471;DHT22;38382;53.160;7.026;2023-04-01T02:58:47;9.50;99.90
52471;DHT22;38382;53.160;7.026;2023-04-01T03:01:13;9.40;99.90
52471;DHT22;38382;53.160;7.026;2023-04-01T03:03:38;9.50;99.90
52471;DHT22;38382;53.160;7.026;2023-04-01T03:06:09;9.40;99.90
52471;DHT22;38382;53.160;7.026;2023-04-01T03:08:36;9.50;99.90
52471;DHT22;38382;53.160;7.026;2023-04-01T03:11:02;9.50;99.90
52471;DHT22;38382;53.160;7.026;2023-04-01T03:13:28;9.50;99.90
52471;DHT22;38382;53.160;7.026;2023-04-01T03:15:54;9.50;99.90
52471;DHT22;38382;53.160;7.026;2023-04-01T03:18:19;9.50;99.90
52471;DHT22;38382;53.160;7.026;2023-04-01T03:20:45;9.50;99.90
52471;DHT22;38382;53.160;7.026;2023-04-01T03:23:11;9.40;99.90
52471;DHT22;38382;53.160;7.026;2023-04-01T03:25:37;9.40;99.90
52471;DHT22;38382;53.160;7.026;2023-04-01T03:28:03;9.50;99.90
52471;DHT22;38382;53.160;7.026;2023-04-01T03:30:29;9.50;99.90
52471;DHT22;38382;53.160;7.026;2023-04-01T03:32:57;9.40;99.90
52471;DHT22;38382;53.160;7.026;2023-04-01T03:35:23;9.50;99.90
52471;DHT22;38382;53.160;7.026;2023-04-01T03:37:50;9.40;99.90
52471;DHT22;38382;53.160;7.026;2023-04-01T03:40:16;9.40;99.90
52471;DHT22;38382;53.160;7.026;2023-04-01T03:42:42;9.40;99.90
52471;DHT22;38382;53.160;7.026;2023-04-01T03:45:08;9.50;99.90
52471;DHT22;38382;53.160;7.026;2023-04-01T03:47:35;9.50;99.90
52471;DHT22;38382;53.160;7.026;2023-04-01T03:50:01;9.40;99.90
52471;DHT22;38382;53.160;7.026;2023-04-01T03:52:27;9.40;99.90
52471;DHT22;38382;53.160;7.026;2023-04-01T03:54:52;9.50;99.90
52471;DHT22;38382;53.160;7.026;2023-04-01T03:57:18;9.40;99.90
52471;DHT22;38382;53.160;7.026;2023-04-01T03:59:44;9.40;99.90
52471;DHT22;38382;53.160;7.026;2023-04-01T04:02:09;9.40;99.90
52471;DHT22;38382;53.160;7.026;2023-04-01T04:04:35;9.40;99.90
52471;DHT22;38382;53.160;7.026;2023-04-01T04:07:01;9.40;99.90
52471;DHT22;38382;53.160;7.026;2023-04-01T04:09:29;9.40;99.90
52471;DHT22;38382;53.160;7.026;2023-04-01T04:11:55;9.40;99.90
52471;DHT22;38382;53.160;7.026;2023-04-01T04:14:22;9.40;99.90
52471;DHT22;38382;53.160;7.026;2023-04-01T04:16:48;9.40;99.90
52471;DHT22;38382;53.160;7.026;2023-04-01T04:19:14;9.40;99.90
52471;DHT22;38382;53.160;7.026;2023-04-01T04:21:41;9.40;99.90
52471;DHT22;38382;53.160;7.026;2023-04-01T04:24:07;9.40;99.90
52471;DHT22;38382;53.160;7.026;2023-04-01T04:26:33;9.40;99.90
52471;DHT22;38382;53.160;7.026;2023-04-01T04:28:59;9.40;99.90
52471;DHT22;38382;53.160;7.026;2023-04-01T04:31:25;9.40;99.90
52471;DHT22;38382;53.160;7.026;2023-04-01T04:33:52;9.40;99.90
52471;DHT22;38382;53.160;7.026;2023-04-01T04:36:19;9.40;99.90
52471;DHT22;38382;53.160;7.026;2023-04-01T04:38:45;9.40;99.90
52471;DHT22;38382;53.160;7.026;2023-04-01T04:41:12;9.40;99.90
52471;DHT22;38382;53.160;7.026;2023-04-01T04:43:39;9.40;99.90
52471;DHT22;38382;53.160;7.026;2023-04-01T04:46:09;9.40;99.90
52471;DHT22;38382;53.160;7.026;2023-04-01T04:48:35;9.40;99.90
52471;DHT22;38382;53.160;7.026;2023-04-01T04:51:01;9.40;99.90
52471;DHT22;38382;53.160;7.026;2023-04-01T04:53:27;9.40;99.90
52471;DHT22;38382;53.160;7.026;2023-04-01T04:55:53;9.40;99.90
52471;DHT22;38382;53.160;7.026;2023-04-01T04:58:19;9.40;99.90
52471;DHT22;38382;53.160;7.026;2023-04-01T05:00:46;9.40;99.90
52471;DHT22;38382;53.160;7.026;2023-04-01T05:03:13;9.40;99.90
52471;DHT22;38382;53.160;7.026;2023-04-01T05:05:39;9.30;99.90
52471;DHT22;38382;53.160;7.026;2023-04-01T05:08:05;9.30;99.90
52471;DHT22;38382;53.160;7.026;2023-04-01T05:10:31;9.30;99.90
52471;DHT22;38382;53.160;7.026;2023-04-01T05:12:58;9.40;99.90
52471;DHT22;38382;53.160;7.026;2023-04-01T05:15:24;9.40;99.90
52471;DHT22;38382;53.160;7.026;2023-04-01T05:17:50;9.40;99.90
52471;DHT22;38382;53.160;7.026;2023-04-01T05:20:16;9.30;99.90
52471;DHT22;38382;53.160;7.026;2023-04-01T05:22:42;9.30;99.90
52471;DHT22;38382;53.160;7.026;2023-04-01T05:25:08;9.40;99.90
52471;DHT22;38382;53.160;7.026;2023-04-01T05:27:34;9.40;99.90
52471;DHT22;38382;53.160;7.026;2023-04-01T05:30:00;9.40;99.90
52471;DHT22;38382;53.160;7.026;2023-04-01T05:32:26;9.40;99.90
52471;DHT22;38382;53.160;7.026;2023-04-01T05:34:52;9.40;99.90
52471;DHT22;38382;53.160;7.026;2023-04-01T05:37:18;9.40;99.90
52471;DHT22;38382;53.160;7.026;2023-04-01T05:39:44;9.40;99.90
52471;DHT22;38382;53.160;7.026;2023-04-01T05:42:10;9.40;99.90
52471;DHT22;38382;53.160;7.026;2023-04-01T05:44:36;9.50;99.90
52471;DHT22;38382;53.160;7.026;2023-04-01T05:47:03;9.40;99.90
52471;DHT22;38382;53.160;7.026;2023-04-01T05:49:31;9.50;99.90
52471;DHT22;38382;53.160;7.026;2023-04-01T05:51:58;9.50;99.90
52471;DHT22;38382;53.160;7.026;2023-04-01T05:54:24;9.50;99.90
52471;DHT22;38382;53.160;7.026;2023-04-01T05:56:49;9.50;99.90
52471;DHT22;38382;53.160;7.026;2023-04-01T05:59:15;9.50;99.90
52471;DHT22;38382;53.160;7.026;2023-04-01T06:01:42;9.60;99.90
52471;DHT22;38382;53.160;7.026;2023-04-01T06:04:14;9.50;99.90
52471;DHT22;38382;53.160;7.026;2023-04-01T06:06:41;9.60;99.90
52471;DHT22;38382;53.160;7.026;2023-04-01T06:20:16;9.70;99.90
52471;DHT22;38382;53.160;7.026;2023-04-01T06:29:19;9.80;99.90
52471;DHT22;38382;53.160;7.026;2023-04-01T06:34:58;9.80;99.90
52471;DHT22;38382;53.160;7.026;2023-04-01T06:37:53;9.90;99.90
52471;DHT22;38382;53.160;7.026;2023-04-01T06:45:58;10.00;99.90
52471;DHT22;38382;53.160;7.026;2023-04-01T06:51:27;10.00;99.90
52471;DHT22;38382;53.160;7.026;2023-04-01T06:56:29;10.10;99.90
52471;DHT22;38382;53.160;7.026;2023-04-01T06:59:02;10.20;99.90
52471;DHT22;38382;53.160;7.026;2023-04-01T07:01:41;10.30;99.90
52471;DHT22;38382;53.160;7.026;2023-04-01T07:04:23;10.30;99.90
52471;DHT22;38382;53.160;7.026;2023-04-01T07:06:54;10.30;99.90
52471;DHT22;38382;53.160;7.026;2023-04-01T07:09:33;10.40;99.90
52471;DHT22;38382;53.160;7.026;2023-04-01T07:12:06;10.40;99.90
52471;DHT22;38382;53.160;7.026;2023-04-01T07:14:36;10.60;99.90
52471;DHT22;38382;53.160;7.026;2023-04-01T07:17:17;10.70;99.90
52471;DHT22;38382;53.160;7.026;2023-04-01T07:22:40;11.00;99.90
52471;DHT22;38382;53.160;7.026;2023-04-01T07:27:40;11.10;99.90
52471;DHT22;38382;53.160;7.026;2023-04-01T07:30:17;11.10;99.90
52471;DHT22;38382;53.160;7.026;2023-04-01T07:33:04;11.20;99.90
52471;DHT22;38382;53.160;7.026;2023-04-01T07:35:55;11.30;99.90
52471;DHT22;38382;53.160;7.026;2023-04-01T07:38:46;11.30;99.90
52471;DHT22;38382;53.160;7.026;2023-04-01T07:49:42;11.40;99.90
52471;DHT22;38382;53.160;7.026;2023-04-01T07:55:25;11.30;99.90
52471;DHT22;38382;53.160;7.026;2023-04-01T08:20:58;11.50;99.90
52471;DHT22;38382;53.160;7.026;2023-04-01T08:23:32;11.40;99.90
52471;DHT22;38382;53.160;7.026;2023-04-01T08:26:14;11.40;99.90
52471;DHT22;38382;53.160;7.026;2023-04-01T08:28:45;11.50;99.90
52471;DHT22;38382;53.160;7.026;2023-04-01T08:31:29;11.50;99.90
52471;DHT22;38382;53.160;7.026;2023-04-01T08:33:57;11.50;99.90
52471;DHT22;38382;53.160;7.026;2023-04-01T08:36:34;11.50;99.90
52471;DHT22;38382;53.160;7.026;2023-04-01T08:39:18;11.50;99.90
52471;DHT22;38382;53.160;7.026;2023-04-01T08:45:25;11.60;99.90
52471;DHT22;38382;53.160;7.026;2023-04-01T08:48:16;11.60;99.90
52471;DHT22;38382;53.160;7.026;2023-04-01T08:56:18;11.80;99.90
52471;DHT22;38382;53.160;7.026;2023-04-01T08:59:20;11.90;99.90
52471;DHT22;38382;53.160;7.026;2023-04-01T09:02:03;11.90;99.90
52471;DHT22;38382;53.160;7.026;2023-04-01T09:19:00;12.40;99.90
52471;DHT22;38382;53.160;7.026;2023-04-01T09:21:46;12.30;99.90
52471;DHT22;38382;53.160;7.026;2023-04-01T09:24:42;12.10;99.90
52471;DHT22;38382;53.160;7.026;2023-04-01T09:27:35;11.90;99.90
52471;DHT22;38382;53.160;7.026;2023-04-01T09:52:25;11.30;99.90
52471;DHT22;38382;53.160;7.026;2023-04-01T10:25:48;11.60;99.90
52471;DHT22;38382;53.160;7.026;2023-04-01T10:37:14;11.70;99.90
52471;DHT22;38382;53.160;7.026;2023-04-01T10:45:55;11.50;99.90
52471;DHT22;38382;53.160;7.026;2023-04-01T10:49:01;11.50;99.90
52471;DHT22;38382;53.160;7.026;2023-04-01T11:00:18;11.50;99.90
52471;DHT22;38382;53.160;7.026;2023-04-01T11:03:40;11.60;99.90
52471;DHT22;38382;53.160;7.026;2023-04-01T11:18:01;12.30;99.90
52471;DHT22;38382;53.160;7.026;2023-04-01T11:23:39;12.30;99.90
52471;DHT22;38382;53.160;7.026;2023-04-01T11:29:35;12.50;99.90
52471;DHT22;38382;53.160;7.026;2023-04-01T11:32:19;12.80;99.90
52471;DHT22;38382;53.160;7.026;2023-04-01T11:37:40;13.10;99.90
52471;DHT22;38382;53.160;7.026;2023-04-01T11:46:25;13.00;99.90
52471;DHT22;38382;53.160;7.026;2023-04-01T11:52:32;12.90;99.90
52471;DHT22;38382;53.160;7.026;2023-04-01T12:14:50;12.50;99.90
52471;DHT22;38382;53.160;7.026;2023-04-01T12:25:43;12.10;99.90
52471;DHT22;38382;53.160;7.026;2023-04-01T12:31:19;12.00;99.90
52471;DHT22;38382;53.160;7.026;2023-04-01T12:36:48;11.80;99.90
52471;DHT22;38382;53.160;7.026;2023-04-01T12:42:31;11.70;99.90
52471;DHT22;38382;53.160;7.026;2023-04-01T13:14:18;11.40;99.90
52471;DHT22;38382;53.160;7.026;2023-04-01T13:20:11;11.20;99.90
52471;DHT22;38382;53.160;7.026;2023-04-01T13:25:19;11.10;99.90
52471;DHT22;38382;53.160;7.026;2023-04-01T13:27:56;11.10;99.90
52471;DHT22;38382;53.160;7.026;2023-04-01T13:30:38;11.10;99.90
52471;DHT22;38382;53.160;7.026;2023-04-01T13:36:00;11.10;99.90
52471;DHT22;38382;53.160;7.026;2023-04-01T13:44:39;11.10;99.90
52471;DHT22;38382;53.160;7.026;2023-04-01T13:47:43;11.20;99.90
52471;DHT22;38382;53.160;7.026;2023-04-01T13:59:40;11.00;99.90
52471;DHT22;38382;53.160;7.026;2023-04-01T14:08:13;10.80;99.90
52471;DHT22;38382;53.160;7.026;2023-04-01T14:13:37;10.80;99.90
52471;DHT22;38382;53.160;7.026;2023-04-01T14:19:22;10.90;99.90
52471;DHT22;38382;53.160;7.026;2023-04-01T14:28:12;10.90;99.90
52471;DHT22;38382;53.160;7.026;2023-04-01T14:36:34;10.80;99.90
52471;DHT22;38382;53.160;7.026;2023-04-01T14:47:46;10.60;99.90
52471;DHT22;38382;53.160;7.026;2023-04-01T14:53:27;10.50;99.90
52471;DHT22;38382;53.160;7.026;2023-04-01T14:55:58;10.40;99.90
52471;DHT22;38382;53.160;7.026;2023-04-01T14:58:42;10.30;99.90
52471;DHT22;38382;53.160;7.026;2023-04-01T15:01:18;10.20;99.90
52471;DHT22;38382;53.160;7.026;2023-04-01T15:13:03;10.00;99.90
52471;DHT22;38382;53.160;7.026;2023-04-01T15:16:08;9.90;99.90
52471;DHT22;38382;53.160;7.026;2023-04-01T15:18:30;9.80;99.90
52471;DHT22;38382;53.160;7.026;2023-04-01T15:21:04;9.70;99.90
52471;DHT22;38382;53.160;7.026;2023-04-01T15:45:12;9.00;99.90
52471;DHT22;38382;53.160;7.026;2023-04-01T15:47:58;9.00;99.90
52471;DHT22;38382;53.160;7.026;2023-04-01T15:55:57;8.90;99.90
52471;DHT22;38382;53.160;7.026;2023-04-01T16:01:47;8.90;99.90
52471;DHT22;38382;53.160;7.026;2023-04-01T16:04:24;8.90;99.90
52471;DHT22;38382;53.160;7.026;2023-04-01T16:07:30;8.90;99.90
52471;DHT22;38382;53.160;7.026;2023-04-01T16:15:50;8.80;99.90
52471;DHT22;38382;53.160;7.026;2023-04-01T16:21:41;8.80;99.90
52471;DHT22;38382;53.160;7.026;2023-04-01T16:24:22;8.80;99.90
52471;DHT22;38382;53.160;7.026;2023-04-01T16:27:15;8.70;99.90
52471;DHT22;38382;53.160;7.026;2023-04-01T16:34:57;8.70;99.90
52471;DHT22;38382;53.160;7.026;2023-04-01T16:37:46;8.60;99.90
52471;DHT22;38382;53.160;7.026;2023-04-01T16:43:20;8.40;99.90
52471;DHT22;38382;53.160;7.026;2023-04-01T16:51:52;8.10;99.90
52471;DHT22;38382;53.160;7.026;2023-04-01T16:57:23;8.10;99.90
52471;DHT22;38382;53.160;7.026;2023-04-01T17:02:45;7.90;99.90
52471;DHT22;38382;53.160;7.026;2023-04-01T17:05:13;7.80;99.90
52471;DHT22;38382;53.160;7.026;2023-04-01T17:08:03;7.80;99.90
52471;DHT22;38382;53.160;7.026;2023-04-01T17:19:27;7.70;99.90
52471;DHT22;38382;53.160;7.026;2023-04-01T17:39:02;7.40;99.90
52471;DHT22;38382;53.160;7.026;2023-04-01T17:44:32;7.30;99.90
52471;DHT22;38382;53.160;7.026;2023-04-01T17:47:10;7.30;99.90
52471;DHT22;38382;53.160;7.026;2023-04-01T17:52:46;7.30;99.90
52471;DHT22;38382;53.160;7.026;2023-04-01T17:57:56;7.20;99.90
52471;DHT22;38382;53.160;7.026;2023-04-01T18:00:50;7.20;99.90
52471;DHT22;38382;53.160;7.026;2023-04-01T18:08:59;7.10;99.90
52471;DHT22;38382;53.160;7.026;2023-04-01T18:11:34;7.10;99.90
52471;DHT22;38382;53.160;7.026;2023-04-01T18:20:47;7.00;99.90
52471;DHT22;38382;53.160;7.026;2023-04-01T18:23:28;6.90;99.90
52471;DHT22;38382;53.160;7.026;2023-04-01T18:26:14;6.90;99.90
52471;DHT22;38382;53.160;7.026;2023-04-01T18:28:52;6.90;99.90
52471;DHT22;38382;53.160;7.026;2023-04-01T18:31:24;6.90;99.90
52471;DHT22;38382;53.160;7.026;2023-04-01T18:33:58;6.80;99.90
52471;DHT22;38382;53.160;7.026;2023-04-01T18:36:49;6.80;99.90
52471;DHT22;38382;53.160;7.026;2023-04-01T18:44:59;6.70;99.90
52471;DHT22;38382;53.160;7.026;2023-04-01T18:50:57;6.70;99.90
52471;DHT22;38382;53.160;7.026;2023-04-01T18:53:39;6.60;99.90
52471;DHT22;38382;53.160;7.026;2023-04-01T18:56:10;6.60;99.90
52471;DHT22;38382;53.160;7.026;2023-04-01T18:58:48;6.60;99.90
52471;DHT22;38382;53.160;7.026;2023-04-01T19:01:19;6.60;99.90
52471;DHT22;38382;53.160;7.026;2023-04-01T19:04:00;6.60;99.90
52471;DHT22;38382;53.160;7.026;2023-04-01T19:06:45;6.60;99.90
52471;DHT22;38382;53.160;7.026;2023-04-01T19:09:23;6.60;99.90
52471;DHT22;38382;53.160;7.026;2023-04-01T19:12:44;6.50;99.90
52471;DHT22;38382;53.160;7.026;2023-04-01T19:18:07;6.40;99.90
52471;DHT22;38382;53.160;7.026;2023-04-01T19:37:16;6.20;99.90
52471;DHT22;38382;53.160;7.026;2023-04-01T19:42:47;6.20;99.90
52471;DHT22;38382;53.160;7.026;2023-04-01T19:51:28;6.10;99.90
52471;DHT22;38382;53.160;7.026;2023-04-01T19:57:17;6.10;99.90
52471;DHT22;38382;53.160;7.026;2023-04-01T19:59:56;6.00;99.90
52471;DHT22;38382;53.160;7.026;2023-04-01T20:05:38;6.00;99.90
52471;DHT22;38382;53.160;7.026;2023-04-01T20:13:49;5.90;99.90
52471;DHT22;38382;53.160;7.026;2023-04-01T20:16:16;5.90;99.90
52471;DHT22;38382;53.160;7.026;2023-04-01T20:18:55;5.90;99.90
52471;DHT22;38382;53.160;7.026;2023-04-01T20:21:42;5.90;99.90
52471;DHT22;38382;53.160;7.026;2023-04-01T20:24:21;5.80;99.90
52471;DHT22;38382;53.160;7.026;2023-04-01T20:26:53;5.80;99.90
52471;DHT22;38382;53.160;7.026;2023-04-01T20:29:35;5.80;99.90
52471;DHT22;38382;53.160;7.026;2023-04-01T20:32:36;5.80;99.90
52471;DHT22;38382;53.160;7.026;2023-04-01T20:40:52;5.80;99.90
52471;DHT22;38382;53.160;7.026;2023-04-01T20:43:30;5.70;99.90
52471;DHT22;38382;53.160;7.026;2023-04-01T20:46:19;5.70;99.90
52471;DHT22;38382;53.160;7.026;2023-04-01T20:51:32;5.70;99.90
52471;DHT22;38382;53.160;7.026;2023-04-01T21:10:56;5.60;99.90
52471;DHT22;38382;53.160;7.026;2023-04-01T21:18:46;5.60;99.90
52471;DHT22;38382;53.160;7.026;2023-04-01T21:27:12;5.50;99.90
52471;DHT22;38382;53.160;7.026;2023-04-01T21:58:40;5.30;99.90
52471;DHT22;38382;53.160;7.026;2023-04-01T22:04:03;5.20;99.90
52471;DHT22;38382;53.160;7.026;2023-04-01T22:06:41;5.20;99.90
52471;DHT22;38382;53.160;7.026;2023-04-01T22:09:32;5.20;99.90
52471;DHT22;38382;53.160;7.026;2023-04-01T22:12:04;5.20;99.90
52471;DHT22;38382;53.160;7.026;2023-04-01T22:23:08;5.10;99.90
52471;DHT22;38382;53.160;7.026;2023-04-01T22:28:11;5.00;99.90
52471;DHT22;38382;53.160;7.026;2023-04-01T22:30:42;5.00;99.90
52471;DHT22;38382;53.160;7.026;2023-04-01T22:39:01;4.90;99.90
52471;DHT22;38382;53.160;7.026;2023-04-01T22:47:40;4.90;99.90
52471;DHT22;38382;53.160;7.026;2023-04-01T22:50:14;4.90;99.90
52471;DHT22;38382;53.160;7.026;2023-04-01T22:52:46;4.90;99.90
52471;DHT22;38382;53.160;7.026;2023-04-01T22:58:05;4.90;99.90
52471;DHT22;38382;53.160;7.026;2023-04-01T23:00:59;4.80;99.90
52471;DHT22;38382;53.160;7.026;2023-04-01T23:03:32;5.60;99.90
52471;DHT22;38382;53.160;7.026;2023-04-01T23:06:01;4.70;99.90
52471;DHT22;38382;53.160;7.026;2023-04-01T23:11:49;4.50;99.90
52471;DHT22;38382;53.160;7.026;2023-04-01T23:20:15;4.50;99.90
52471;DHT22;38382;53.160;7.026;2023-04-01T23:28:53;4.40;99.90
52471;DHT22;38382;53.160;7.026;2023-04-01T23:31:34;4.40;99.90
52471;DHT22;38382;53.160;7.026;2023-04-01T23:36:44;4.30;99.90
52471;DHT22;38382;53.160;7.026;2023-04-01T23:41:40;4.30;99.90
52471;DHT22;38382;53.160;7.026;2023-04-01T23:44:11;4.30;99.90
52471;DHT22;38382;53.160;7.026;2023-04-01T23:46:40;4.20;99.90
52471;DHT22;38382;53.160;7.026;2023-04-01T23:49:18;4.20;99.90
52471;DHT22;38382;53.160;7.026;2023-04-01T23:52:11;4.10;99.90
52471;DHT22;38382;53.160;7.026;2023-04-01T23:55:01;4.10;99.90
52471;DHT22;38382;53.160;7.026;2023-04-01T23:57:36;4.00;99.90
